sensor_id;sensor_type;location;lat;lon;timestamp;temperature;humidity
32394;DHT22;18853;45.426;9.206;2023-06-01T00:01:52;27.40;43.70
32394;DHT22;18853;45.426;9.206;2023-06-01T00:04:18;27.40;43.80
32394;DHT22;18853;45.426;9.206;2023-06-01T00:06:44;27.30;44.30
32394;DHT22;18853;45.426;9.206;2023-06-01T00:09:09;27.30;43.80
32394;DHT22;18853;45.426;9.206;2023-06-01T00:11:35;27.30;43.90
32394;DHT22;18853;45.426;9.206;2023-06-01T00:14:01;27.30;44.00
32394;DHT22;18853;45.426;9.206;2023-06-01T00:16:28;27.20;44.00
32394;DHT22;18853;45.426;9.206;2023-06-01T00:18:56;27.20;44.00
32394;DHT22;18853;45.426;9.206;2023-06-01T00:21:22;27.20;44.10
32394;DHT22;18853;45.426;9.206;2023-06-01T00:23:48;27.20;44.00
32394;DHT22;18853;45.426;9.206;2023-06-01T00:26:14;27.20;44.10
32394;DHT22;18853;45.426;9.206;2023-06-01T00:28:41;27.20;44.20
32394;DHT22;18853;45.426;9.206;2023-06-01T00:31:06;27.20;44.40
32394;DHT22;18853;45.426;9.206;2023-06-01T00:33:32;27.10;44.40
32394;DHT22;18853;45.426;9.206;2023-06-01T00:35:58;27.10;44.40
32394;DHT22;18853;45.426;9.206;2023-06-01T00:38:23;27.10;44.50
32394;DHT22;18853;45.426;9.206;2023-06-01T00:40:49;27.10;44.40
32394;DHT22;18853;45.426;9.206;2023-06-01T00:43:17;27.10;44.40
32394;DHT22;18853;45.426;9.206;2023-06-01T00:45:43;27.20;44.40
32394;DHT22;18853;45.426;9.206;2023-06-01T00:48:09;27.20;44.40
32394;DHT22;18853;45.426;9.206;2023-06-01T00:50:35;27.20;44.30
32394;DHT22;18853;45.426;9.206;2023-06-01T00:53:03;27.30;44.20
32394;DHT22;18853;45.426;9.206;2023-06-01T00:55:31;27.20;44.20
32394;DHT22;18853;45.426;9.206;2023-06-01T00:57:57;27.20;44.30
32394;DHT22;18853;45.426;9.206;2023-06-01T01:00:24;27.20;44.50
32394;DHT22;18853;45.426;9.206;2023-06-01T01:02:52;27.20;44.50
32394;DHT22;18853;45.426;9.206;2023-06-01T01:05:17;27.10;44.70
32394;DHT22;18853;45.426;9.206;2023-06-01T01:10:41;27.20;44.70
32394;DHT22;18853;45.426;9.206;2023-06-01T01:14:00;27.10;44.80
32394;DHT22;18853;45.426;9.206;2023-06-01T01:18:54;27.10;44.80
32394;DHT22;18853;45.426;9.206;2023-06-01T01:21:29;27.00;44.70
32394;DHT22;18853;45.426;9.206;2023-06-01T01:27:10;26.90;44.70
32394;DHT22;18853;45.426;9.206;2023-06-01T01:29:37;26.90;44.80
32394;DHT22;18853;45.426;9.206;2023-06-01T01:32:05;26.80;44.90
32394;DHT22;18853;45.426;9.206;2023-06-01T01:34:32;26.80;44.80
32394;DHT22;18853;45.426;9.206;2023-06-01T01:36:58;26.80;44.80
32394;DHT22;18853;45.426;9.206;2023-06-01T01:39:25;26.80;44.90
32394;DHT22;18853;45.426;9.206;2023-06-01T01:41:50;26.80;45.00
32394;DHT22;18853;45.426;9.206;2023-06-01T01:44:16;26.80;45.00
32394;DHT22;18853;45.426;9.206;2023-06-01T01:47:07;26.80;45.10
32394;DHT22;18853;45.426;9.206;2023-06-01T01:49:48;26.70;44.80
32394;DHT22;18853;45.426;9.206;2023-06-01T01:52:25;26.70;45.20
32394;DHT22;18853;45.426;9.206;2023-06-01T01:54:52;26.60;45.20
32394;DHT22;18853;45.426;9.206;2023-06-01T01:57:19;26.60;45.20
32394;DHT22;18853;45.426;9.206;2023-06-01T01:59:47;26.60;45.30
32394;DHT22;18853;45.426;9.206;2023-06-01T02:02:13;26.50;45.20
32394;DHT22;18853;45.426;9.206;2023-06-01T02:04:43;26.50;45.20
32394;DHT22;18853;45.426;9.206;2023-06-01T02:07:09;26.50;45.30
32394;DHT22;18853;45.426;9.206;2023-06-01T02:09:36;26.50;45.30
32394;DHT22;18853;45.426;9.206;2023-06-01T02:12:01;26.50;45.40
32394;DHT22;18853;45.426;9.206;2023-06-01T02:14:28;26.50;45.50
32394;DHT22;18853;45.426;9.206;2023-06-01T02:16:54;26.50;45.50
32394;DHT22;18853;45.426;9.206;2023-06-01T02:19:20;26.40;45.40
32394;DHT22;18853;45.426;9.206;2023-06-01T02:21:46;26.50;45.50
32394;DHT22;18853;45.426;9.206;2023-06-01T02:24:11;26.50;45.60
32394;DHT22;18853;45.426;9.206;2023-06-01T02:26:38;26.40;45.60
32394;DHT22;18853;45.426;9.206;2023-06-01T02:29:04;26.50;45.70
32394;DHT22;18853;45.426;9.206;2023-06-01T02:31:33;26.50;45.70
32394;DHT22;18853;45.426;9.206;2023-06-01T02:33:59;26.50;45.60
32394;DHT22;18853;45.426;9.206;2023-06-01T02:36:26;26.50;45.60
32394;DHT22;18853;45.426;9.206;2023-06-01T02:38:53;26.50;45.70
32394;DHT22;18853;45.426;9.206;2023-06-01T02:41:19;26.50;45.60
32394;DHT22;18853;45.426;9.206;2023-06-01T02:43:44;26.50;45.60
32394;DHT22;18853;45.426;9.206;2023-06-01T02:46:10;26.40;45.40
32394;DHT22;18853;45.426;9.206;2023-06-01T02:48:36;26.40;45.50
32394;DHT22;18853;45.426;9.206;2023-06-01T02:51:01;26.40;45.60
32394;DHT22;18853;45.426;9.206;2023-06-01T02:53:27;26.30;45.50
32394;DHT22;18853;45.426;9.206;2023-06-01T02:55:54;26.30;45.50
32394;DHT22;18853;45.426;9.206;2023-06-01T02:58:20;26.30;45.60
32394;DHT22;18853;45.426;9.206;2023-06-01T03:00:45;26.30;45.30
32394;DHT22;18853;45.426;9.206;2023-06-01T03:03:12;26.30;45.30
32394;DHT22;18853;45.426;9.206;2023-06-01T03:05:38;26.30;45.40
32394;DHT22;18853;45.426;9.206;2023-06-01T03:08:04;26.30;45.40
32394;DHT22;18853;45.426;9.206;2023-06-01T03:10:32;26.20;45.40
32394;DHT22;18853;45.426;9.206;2023-06-01T03:12:57;26.20;45.50
32394;DHT22;18853;45.426;9.206;2023-06-01T03:15:23;26.20;45.50
32394;DHT22;18853;45.426;9.206;2023-06-01T03:17:49;26.20;45.70
32394;DHT22;18853;45.426;9.206;2023-06-01T03:20:14;26.20;45.70
32394;DHT22;18853;45.426;9.206;2023-06-01T03:22:44;26.20;45.60
32394;DHT22;18853;45.426;9.206;2023-06-01T03:25:11;26.30;45.60
32394;DHT22;18853;45.426;9.206;2023-06-01T03:27:40;26.30;45.50
32394;DHT22;18853;45.426;9.206;2023-06-01T03:30:07;26.30;45.50
32394;DHT22;18853;45.426;9.206;2023-06-01T03:32:39;26.30;45.50
32394;DHT22;18853;45.426;9.206;2023-06-01T03:35:07;26.30;45.60
32394;DHT22;18853;45.426;9.206;2023-06-01T03:37:38;26.20;45.60
32394;DHT22;18853;45.426;9.206;2023-06-01T03:40:04;26.20;45.70
32394;DHT22;18853;45.426;9.206;2023-06-01T03:42:47;26.20;45.70
32394;DHT22;18853;45.426;9.206;2023-06-01T03:45:14;26.30;45.80
32394;DHT22;18853;45.426;9.206;2023-06-01T03:47:41;26.20;45.80
32394;DHT22;18853;45.426;9.206;2023-06-01T03:50:08;26.30;45.90
32394;DHT22;18853;45.426;9.206;2023-06-01T03:52:35;26.30;45.90
32394;DHT22;18853;45.426;9.206;2023-06-01T03:55:03;26.30;45.90
32394;DHT22;18853;45.426;9.206;2023-06-01T03:57:37;26.30;46.00
32394;DHT22;18853;45.426;9.206;2023-06-01T04:00:07;26.20;46.20
32394;DHT22;18853;45.426;9.206;2023-06-01T04:02:56;26.20;46.40
32394;DHT22;18853;45.426;9.206;2023-06-01T04:05:24;26.20;46.50
32394;DHT22;18853;45.426;9.206;2023-06-01T04:07:52;26.10;46.50
32394;DHT22;18853;45.426;9.206;2023-06-01T04:10:18;26.10;46.70
32394;DHT22;18853;45.426;9.206;2023-06-01T04:12:46;26.10;46.70
32394;DHT22;18853;45.426;9.206;2023-06-01T04:15:13;26.20;46.80
32394;DHT22;18853;45.426;9.206;2023-06-01T04:17:40;26.20;46.80
32394;DHT22;18853;45.426;9.206;2023-06-01T04:20:11;26.30;46.80
32394;DHT22;18853;45.426;9.206;2023-06-01T04:22:41;26.30;46.80
32394;DHT22;18853;45.426;9.206;2023-06-01T04:25:12;26.30;46.60
32394;DHT22;18853;45.426;9.206;2023-06-01T04:27:42;26.40;46.60
32394;DHT22;18853;45.426;9.206;2023-06-01T04:30:11;26.30;46.60
32394;DHT22;18853;45.426;9.206;2023-06-01T04:32:37;26.30;46.70
32394;DHT22;18853;45.426;9.206;2023-06-01T04:35:07;26.30;46.70
32394;DHT22;18853;45.426;9.206;2023-06-01T04:37:34;26.30;46.80
32394;DHT22;18853;45.426;9.206;2023-06-01T04:40:03;26.20;46.60
32394;DHT22;18853;45.426;9.206;2023-06-01T04:42:33;26.30;46.60
32394;DHT22;18853;45.426;9.206;2023-06-01T04:45:00;26.30;46.40
32394;DHT22;18853;45.426;9.206;2023-06-01T04:47:30;26.30;46.40
32394;DHT22;18853;45.426;9.206;2023-06-01T04:49:57;26.30;46.40
32394;DHT22;18853;45.426;9.206;2023-06-01T04:52:23;26.20;46.40
32394;DHT22;18853;45.426;9.206;2023-06-01T04:54:49;26.30;46.60
32394;DHT22;18853;45.426;9.206;2023-06-01T04:57:14;26.20;47.00
32394;DHT22;18853;45.426;9.206;2023-06-01T04:59:42;26.20;47.30
32394;DHT22;18853;45.426;9.206;2023-06-01T05:02:08;26.20;47.30
32394;DHT22;18853;45.426;9.206;2023-06-01T05:04:33;26.20;47.30
32394;DHT22;18853;45.426;9.206;2023-06-01T05:06:59;26.10;47.30
32394;DHT22;18853;45.426;9.206;2023-06-01T05:09:25;26.10;47.40
32394;DHT22;18853;45.426;9.206;2023-06-01T05:11:51;26.10;47.60
32394;DHT22;18853;45.426;9.206;2023-06-01T05:14:16;26.10;47.20
32394;DHT22;18853;45.426;9.206;2023-06-01T05:16:42;26.10;47.00
32394;DHT22;18853;45.426;9.206;2023-06-01T05:19:08;26.10;48.40
32394;DHT22;18853;45.426;9.206;2023-06-01T05:21:33;26.30;48.10
32394;DHT22;18853;45.426;9.206;2023-06-01T05:23:59;26.40;47.20
32394;DHT22;18853;45.426;9.206;2023-06-01T05:26:25;26.40;46.60
32394;DHT22;18853;45.426;9.206;2023-06-01T05:28:52;26.30;48.00
32394;DHT22;18853;45.426;9.206;2023-06-01T05:31:18;26.40;47.10
32394;DHT22;18853;45.426;9.206;2023-06-01T05:33:44;26.40;47.90
32394;DHT22;18853;45.426;9.206;2023-06-01T05:36:10;26.50;47.30
32394;DHT22;18853;45.426;9.206;2023-06-01T05:38:36;26.50;47.40
32394;DHT22;18853;45.426;9.206;2023-06-01T05:41:03;26.50;47.40
32394;DHT22;18853;45.426;9.206;2023-06-01T05:43:29;26.40;47.70
32394;DHT22;18853;45.426;9.206;2023-06-01T05:45:54;26.40;48.30
32394;DHT22;18853;45.426;9.206;2023-06-01T05:48:20;26.40;48.30
32394;DHT22;18853;45.426;9.206;2023-06-01T05:50:46;26.50;48.00
32394;DHT22;18853;45.426;9.206;2023-06-01T05:53:12;26.50;48.00
32394;DHT22;18853;45.426;9.206;2023-06-01T05:55:37;26.50;48.20
32394;DHT22;18853;45.426;9.206;2023-06-01T05:58:03;26.40;48.30
32394;DHT22;18853;45.426;9.206;2023-06-01T06:00:29;26.40;48.10
32394;DHT22;18853;45.426;9.206;2023-06-01T06:02:55;26.40;48.70
32394;DHT22;18853;45.426;9.206;2023-06-01T06:05:21;26.40;48.90
32394;DHT22;18853;45.426;9.206;2023-06-01T06:07:46;26.40;48.30
32394;DHT22;18853;45.426;9.206;2023-06-01T06:10:12;26.50;48.00
32394;DHT22;18853;45.426;9.206;2023-06-01T06:12:38;26.60;48.00
32394;DHT22;18853;45.426;9.206;2023-06-01T06:15:04;26.70;47.60
32394;DHT22;18853;45.426;9.206;2023-06-01T06:17:30;26.80;47.50
32394;DHT22;18853;45.426;9.206;2023-06-01T06:19:56;26.90;47.20
32394;DHT22;18853;45.426;9.206;2023-06-01T06:22:21;27.00;46.90
32394;DHT22;18853;45.426;9.206;2023-06-01T06:24:47;27.00;46.40
32394;DHT22;18853;45.426;9.206;2023-06-01T06:27:13;27.10;46.30
32394;DHT22;18853;45.426;9.206;2023-06-01T06:29:38;27.10;45.80
32394;DHT22;18853;45.426;9.206;2023-06-01T06:32:04;27.10;45.90
32394;DHT22;18853;45.426;9.206;2023-06-01T06:34:30;27.20;46.00
32394;DHT22;18853;45.426;9.206;2023-06-01T06:37:02;27.20;45.90
32394;DHT22;18853;45.426;9.206;2023-06-01T06:39:28;27.20;45.70
32394;DHT22;18853;45.426;9.206;2023-06-01T06:41:53;27.20;45.50
32394;DHT22;18853;45.426;9.206;2023-06-01T06:44:19;27.20;45.60
32394;DHT22;18853;45.426;9.206;2023-06-01T06:46:45;27.30;45.30
32394;DHT22;18853;45.426;9.206;2023-06-01T06:49:10;27.30;45.50
32394;DHT22;18853;45.426;9.206;2023-06-01T06:51:37;27.20;44.20
32394;DHT22;18853;45.426;9.206;2023-06-01T06:54:03;27.20;45.20
32394;DHT22;18853;45.426;9.206;2023-06-01T06:56:31;27.20;45.00
32394;DHT22;18853;45.426;9.206;2023-06-01T06:58:56;27.20;45.00
32394;DHT22;18853;45.426;9.206;2023-06-01T07:01:22;27.20;45.10
32394;DHT22;18853;45.426;9.206;2023-06-01T07:03:53;27.30;44.40
32394;DHT22;18853;45.426;9.206;2023-06-01T07:06:21;27.20;44.10
32394;DHT22;18853;45.426;9.206;2023-06-01T07:08:48;27.20;44.70
32394;DHT22;18853;45.426;9.206;2023-06-01T07:11:15;27.20;45.00
32394;DHT22;18853;45.426;9.206;2023-06-01T07:13:41;27.30;44.30
32394;DHT22;18853;45.426;9.206;2023-06-01T07:16:06;27.20;44.70
32394;DHT22;18853;45.426;9.206;2023-06-01T07:18:32;27.20;44.40
32394;DHT22;18853;45.426;9.206;2023-06-01T07:20:58;27.30;44.40
32394;DHT22;18853;45.426;9.206;2023-06-01T07:23:24;27.30;44.30
32394;DHT22;18853;45.426;9.206;2023-06-01T07:25:50;27.30;43.80
32394;DHT22;18853;45.426;9.206;2023-06-01T07:28:16;27.30;44.00
32394;DHT22;18853;45.426;9.206;2023-06-01T07:30:42;27.30;42.90
32394;DHT22;18853;45.426;9.206;2023-06-01T07:33:08;27.30;42.70
32394;DHT22;18853;45.426;9.206;2023-06-01T07:35:33;27.30;42.40
32394;DHT22;18853;45.426;9.206;2023-06-01T07:38:00;27.20;42.60
32394;DHT22;18853;45.426;9.206;2023-06-01T07:40:29;27.20;42.10
32394;DHT22;18853;45.426;9.206;2023-06-01T07:42:55;27.10;43.00
32394;DHT22;18853;45.426;9.206;2023-06-01T07:45:21;27.20;43.20
32394;DHT22;18853;45.426;9.206;2023-06-01T07:47:47;27.20;43.20
32394;DHT22;18853;45.426;9.206;2023-06-01T07:50:13;27.30;43.00
32394;DHT22;18853;45.426;9.206;2023-06-01T07:52:39;27.30;42.70
32394;DHT22;18853;45.426;9.206;2023-06-01T07:55:07;27.30;39.70
32394;DHT22;18853;45.426;9.206;2023-06-01T07:57:34;27.30;39.80
32394;DHT22;18853;45.426;9.206;2023-06-01T08:00:00;27.20;40.00
32394;DHT22;18853;45.426;9.206;2023-06-01T08:02:26;27.10;40.30
32394;DHT22;18853;45.426;9.206;2023-06-01T08:04:52;27.20;40.50
32394;DHT22;18853;45.426;9.206;2023-06-01T08:07:17;27.20;40.90
32394;DHT22;18853;45.426;9.206;2023-06-01T08:09:44;27.30;41.50
32394;DHT22;18853;45.426;9.206;2023-06-01T08:12:10;27.30;41.40
32394;DHT22;18853;45.426;9.206;2023-06-01T08:14:36;27.30;41.60
32394;DHT22;18853;45.426;9.206;2023-06-01T08:17:03;27.30;41.10
32394;DHT22;18853;45.426;9.206;2023-06-01T08:19:29;27.30;40.60
32394;DHT22;18853;45.426;9.206;2023-06-01T08:21:55;27.20;40.90
32394;DHT22;18853;45.426;9.206;2023-06-01T08:24:21;27.20;40.70
32394;DHT22;18853;45.426;9.206;2023-06-01T08:26:54;27.20;40.90
32394;DHT22;18853;45.426;9.206;2023-06-01T08:29:20;27.20;40.70
32394;DHT22;18853;45.426;9.206;2023-06-01T08:31:46;27.10;41.10
32394;DHT22;18853;45.426;9.206;2023-06-01T08:34:11;27.00;41.20
32394;DHT22;18853;45.426;9.206;2023-06-01T08:36:37;27.10;41.50
32394;DHT22;18853;45.426;9.206;2023-06-01T08:39:22;27.10;41.70
32394;DHT22;18853;45.426;9.206;2023-06-01T08:42:23;27.10;42.00
32394;DHT22;18853;45.426;9.206;2023-06-01T08:44:53;27.20;41.80
32394;DHT22;18853;45.426;9.206;2023-06-01T08:47:19;27.20;41.40
32394;DHT22;18853;45.426;9.206;2023-06-01T08:49:47;27.20;41.70
32394;DHT22;18853;45.426;9.206;2023-06-01T08:52:19;27.20;42.10
32394;DHT22;18853;45.426;9.206;2023-06-01T08:54:46;27.20;41.90
32394;DHT22;18853;45.426;9.206;2023-06-01T08:57:12;27.20;42.90
32394;DHT22;18853;45.426;9.206;2023-06-01T08:59:39;27.30;42.20
32394;DHT22;18853;45.426;9.206;2023-06-01T09:02:05;27.30;41.10
32394;DHT22;18853;45.426;9.206;2023-06-01T09:04:34;27.30;40.90
32394;DHT22;18853;45.426;9.206;2023-06-01T09:07:03;27.30;41.10
32394;DHT22;18853;45.426;9.206;2023-06-01T09:09:29;27.30;41.40
32394;DHT22;18853;45.426;9.206;2023-06-01T09:12:23;27.30;41.90
32394;DHT22;18853;45.426;9.206;2023-06-01T09:14:50;27.30;41.60
32394;DHT22;18853;45.426;9.206;2023-06-01T09:17:23;27.30;40.90
32394;DHT22;18853;45.426;9.206;2023-06-01T09:19:54;27.40;41.50
32394;DHT22;18853;45.426;9.206;2023-06-01T09:22:23;27.40;41.60
32394;DHT22;18853;45.426;9.206;2023-06-01T09:24:56;27.50;40.10
32394;DHT22;18853;45.426;9.206;2023-06-01T09:27:23;27.50;41.30
32394;DHT22;18853;45.426;9.206;2023-06-01T09:29:56;27.50;41.30
32394;DHT22;18853;45.426;9.206;2023-06-01T09:32:23;27.60;40.10
32394;DHT22;18853;45.426;9.206;2023-06-01T09:34:49;27.50;40.50
32394;DHT22;18853;45.426;9.206;2023-06-01T09:37:15;27.60;40.50
32394;DHT22;18853;45.426;9.206;2023-06-01T09:39:42;27.60;40.10
32394;DHT22;18853;45.426;9.206;2023-06-01T09:42:08;27.70;40.10
32394;DHT22;18853;45.426;9.206;2023-06-01T09:44:41;27.70;39.30
32394;DHT22;18853;45.426;9.206;2023-06-01T09:47:09;27.80;38.90
32394;DHT22;18853;45.426;9.206;2023-06-01T09:49:43;27.70;39.00
32394;DHT22;18853;45.426;9.206;2023-06-01T09:52:14;27.70;39.50
32394;DHT22;18853;45.426;9.206;2023-06-01T09:54:42;27.70;39.60
32394;DHT22;18853;45.426;9.206;2023-06-01T09:57:09;27.80;39.70
32394;DHT22;18853;45.426;9.206;2023-06-01T09:59:40;27.80;39.90
32394;DHT22;18853;45.426;9.206;2023-06-01T10:02:08;27.70;40.00
32394;DHT22;18853;45.426;9.206;2023-06-01T10:04:39;27.70;40.40
32394;DHT22;18853;45.426;9.206;2023-06-01T10:07:06;27.70;40.40
32394;DHT22;18853;45.426;9.206;2023-06-01T10:09:34;27.60;40.30
32394;DHT22;18853;45.426;9.206;2023-06-01T10:12:01;27.70;40.10
32394;DHT22;18853;45.426;9.206;2023-06-01T10:14:27;27.70;40.10
32394;DHT22;18853;45.426;9.206;2023-06-01T10:16:53;27.70;40.10
32394;DHT22;18853;45.426;9.206;2023-06-01T10:19:21;27.70;40.10
32394;DHT22;18853;45.426;9.206;2023-06-01T10:21:47;27.70;40.50
32394;DHT22;18853;45.426;9.206;2023-06-01T10:24:14;27.80;40.50
32394;DHT22;18853;45.426;9.206;2023-06-01T10:26:59;27.80;40.70
32394;DHT22;18853;45.426;9.206;2023-06-01T10:29:28;27.80;40.30
32394;DHT22;18853;45.426;9.206;2023-06-01T10:31:54;27.90;40.50
32394;DHT22;18853;45.426;9.206;2023-06-01T10:34:50;27.90;40.50
32394;DHT22;18853;45.426;9.206;2023-06-01T10:37:16;27.90;39.80
32394;DHT22;18853;45.426;9.206;2023-06-01T10:39:42;27.90;39.60
32394;DHT22;18853;45.426;9.206;2023-06-01T10:52:35;28.10;39.50
32394;DHT22;18853;45.426;9.206;2023-06-01T10:57:39;28.20;39.00
32394;DHT22;18853;45.426;9.206;2023-06-01T11:00:19;28.10;39.10
32394;DHT22;18853;45.426;9.206;2023-06-01T11:03:05;28.10;39.20
32394;DHT22;18853;45.426;9.206;2023-06-01T11:05:40;28.20;40.20
32394;DHT22;18853;45.426;9.206;2023-06-01T11:13:19;28.20;39.10
32394;DHT22;18853;45.426;9.206;2023-06-01T11:18:43;28.40;38.40
32394;DHT22;18853;45.426;9.206;2023-06-01T11:21:20;28.30;39.80
32394;DHT22;18853;45.426;9.206;2023-06-01T11:23:51;28.40;39.00
32394;DHT22;18853;45.426;9.206;2023-06-01T11:26:21;28.40;39.10
32394;DHT22;18853;45.426;9.206;2023-06-01T11:28:51;28.50;38.40
32394;DHT22;18853;45.426;9.206;2023-06-01T11:31:18;28.40;38.90
32394;DHT22;18853;45.426;9.206;2023-06-01T11:33:54;28.50;38.30
32394;DHT22;18853;45.426;9.206;2023-06-01T11:36:25;28.60;38.20
32394;DHT22;18853;45.426;9.206;2023-06-01T11:38:53;28.60;38.00
32394;DHT22;18853;45.426;9.206;2023-06-01T11:41:20;28.70;37.60
32394;DHT22;18853;45.426;9.206;2023-06-01T11:43:56;28.70;38.20
32394;DHT22;18853;45.426;9.206;2023-06-01T11:46:22;28.80;37.80
32394;DHT22;18853;45.426;9.206;2023-06-01T11:49:05;28.90;38.00
32394;DHT22;18853;45.426;9.206;2023-06-01T11:51:37;29.00;37.60
32394;DHT22;18853;45.426;9.206;2023-06-01T11:54:04;29.00;38.10
32394;DHT22;18853;45.426;9.206;2023-06-01T11:56:32;29.10;37.50
32394;DHT22;18853;45.426;9.206;2023-06-01T11:59:00;29.20;37.50
32394;DHT22;18853;45.426;9.206;2023-06-01T12:01:27;29.20;38.50
32394;DHT22;18853;45.426;9.206;2023-06-01T12:03:53;29.10;38.30
32394;DHT22;18853;45.426;9.206;2023-06-01T12:06:23;29.20;38.00
32394;DHT22;18853;45.426;9.206;2023-06-01T12:08:50;29.40;38.20
32394;DHT22;18853;45.426;9.206;2023-06-01T12:11:25;29.50;37.50
32394;DHT22;18853;45.426;9.206;2023-06-01T12:13:54;29.60;37.10
32394;DHT22;18853;45.426;9.206;2023-06-01T12:16:22;29.50;36.90
32394;DHT22;18853;45.426;9.206;2023-06-01T12:18:48;29.50;37.50
32394;DHT22;18853;45.426;9.206;2023-06-01T12:21:14;29.50;37.60
32394;DHT22;18853;45.426;9.206;2023-06-01T12:23:43;29.50;37.40
32394;DHT22;18853;45.426;9.206;2023-06-01T12:26:09;29.60;37.20
32394;DHT22;18853;45.426;9.206;2023-06-01T12:28:52;29.60;36.30
32394;DHT22;18853;45.426;9.206;2023-06-01T12:31:20;29.70;36.30
32394;DHT22;18853;45.426;9.206;2023-06-01T12:33:47;29.70;36.30
32394;DHT22;18853;45.426;9.206;2023-06-01T12:36:32;29.80;36.70
32394;DHT22;18853;45.426;9.206;2023-06-01T12:39:00;29.90;35.80
32394;DHT22;18853;45.426;9.206;2023-06-01T12:41:26;30.00;36.40
32394;DHT22;18853;45.426;9.206;2023-06-01T12:43:52;30.10;37.20
32394;DHT22;18853;45.426;9.206;2023-06-01T12:48:46;30.10;36.20
32394;DHT22;18853;45.426;9.206;2023-06-01T12:51:13;30.30;35.40
32394;DHT22;18853;45.426;9.206;2023-06-01T12:53:40;30.30;35.00
32394;DHT22;18853;45.426;9.206;2023-06-01T12:56:08;30.30;35.00
32394;DHT22;18853;45.426;9.206;2023-06-01T12:58:34;30.30;35.30
32394;DHT22;18853;45.426;9.206;2023-06-01T13:00:59;30.40;35.80
32394;DHT22;18853;45.426;9.206;2023-06-01T13:03:25;30.50;35.90
32394;DHT22;18853;45.426;9.206;2023-06-01T13:05:51;30.50;35.60
32394;DHT22;18853;45.426;9.206;2023-06-01T13:08:17;30.50;34.80
32394;DHT22;18853;45.426;9.206;2023-06-01T13:10:43;30.50;35.50
32394;DHT22;18853;45.426;9.206;2023-06-01T13:13:09;30.50;35.40
32394;DHT22;18853;45.426;9.206;2023-06-01T13:15:39;30.70;35.80
32394;DHT22;18853;45.426;9.206;2023-06-01T13:18:05;30.80;34.80
32394;DHT22;18853;45.426;9.206;2023-06-01T13:20:31;30.80;35.00
32394;DHT22;18853;45.426;9.206;2023-06-01T13:22:57;30.90;34.70
32394;DHT22;18853;45.426;9.206;2023-06-01T13:25:22;30.90;34.10
32394;DHT22;18853;45.426;9.206;2023-06-01T13:27:49;31.00;34.10
32394;DHT22;18853;45.426;9.206;2023-06-01T13:30:15;31.10;33.80
32394;DHT22;18853;45.426;9.206;2023-06-01T13:32:41;31.20;33.70
32394;DHT22;18853;45.426;9.206;2023-06-01T13:35:07;31.10;32.60
32394;DHT22;18853;45.426;9.206;2023-06-01T13:37:33;31.20;32.50
32394;DHT22;18853;45.426;9.206;2023-06-01T13:40:01;31.20;33.70
32394;DHT22;18853;45.426;9.206;2023-06-01T13:42:28;31.30;33.10
32394;DHT22;18853;45.426;9.206;2023-06-01T13:44:53;31.20;32.70
32394;DHT22;18853;45.426;9.206;2023-06-01T13:47:20;31.30;33.40
32394;DHT22;18853;45.426;9.206;2023-06-01T13:49:46;31.30;33.20
32394;DHT22;18853;45.426;9.206;2023-06-01T13:52:12;31.20;32.30
32394;DHT22;18853;45.426;9.206;2023-06-01T13:54:38;31.30;32.30
32394;DHT22;18853;45.426;9.206;2023-06-01T13:57:04;31.30;32.00
32394;DHT22;18853;45.426;9.206;2023-06-01T13:59:31;31.40;31.80
32394;DHT22;18853;45.426;9.206;2023-06-01T14:01:57;31.40;32.20
32394;DHT22;18853;45.426;9.206;2023-06-01T14:04:23;31.50;31.90
32394;DHT22;18853;45.426;9.206;2023-06-01T14:06:49;31.50;31.40
32394;DHT22;18853;45.426;9.206;2023-06-01T14:09:18;31.60;31.50
32394;DHT22;18853;45.426;9.206;2023-06-01T14:11:44;31.70;31.30
32394;DHT22;18853;45.426;9.206;2023-06-01T14:14:09;31.80;31.60
32394;DHT22;18853;45.426;9.206;2023-06-01T14:16:35;31.80;31.20
32394;DHT22;18853;45.426;9.206;2023-06-01T14:19:01;31.80;32.70
32394;DHT22;18853;45.426;9.206;2023-06-01T14:21:26;31.90;32.60
32394;DHT22;18853;45.426;9.206;2023-06-01T14:23:54;32.00;32.00
32394;DHT22;18853;45.426;9.206;2023-06-01T14:26:20;32.10;32.00
32394;DHT22;18853;45.426;9.206;2023-06-01T14:28:46;32.20;31.70
32394;DHT22;18853;45.426;9.206;2023-06-01T14:31:12;32.20;31.70
32394;DHT22;18853;45.426;9.206;2023-06-01T14:33:38;32.20;32.70
32394;DHT22;18853;45.426;9.206;2023-06-01T14:36:04;32.30;32.40
32394;DHT22;18853;45.426;9.206;2023-06-01T14:38:30;32.40;32.30
32394;DHT22;18853;45.426;9.206;2023-06-01T14:40:56;32.40;32.00
32394;DHT22;18853;45.426;9.206;2023-06-01T14:43:22;32.50;32.40
32394;DHT22;18853;45.426;9.206;2023-06-01T14:45:47;32.50;32.10
32394;DHT22;18853;45.426;9.206;2023-06-01T14:48:13;32.60;31.80
32394;DHT22;18853;45.426;9.206;2023-06-01T14:50:39;32.60;31.70
32394;DHT22;18853;45.426;9.206;2023-06-01T14:53:05;32.60;30.80
32394;DHT22;18853;45.426;9.206;2023-06-01T14:55:30;32.60;31.30
32394;DHT22;18853;45.426;9.206;2023-06-01T14:57:56;32.60;31.30
32394;DHT22;18853;45.426;9.206;2023-06-01T15:00:22;32.60;31.30
32394;DHT22;18853;45.426;9.206;2023-06-01T15:02:48;32.70;30.80
32394;DHT22;18853;45.426;9.206;2023-06-01T15:05:13;32.60;30.50
32394;DHT22;18853;45.426;9.206;2023-06-01T15:07:39;32.60;30.50
32394;DHT22;18853;45.426;9.206;2023-06-01T15:10:05;32.50;30.80
32394;DHT22;18853;45.426;9.206;2023-06-01T15:12:31;32.60;30.70
32394;DHT22;18853;45.426;9.206;2023-06-01T15:14:57;32.60;30.50
32394;DHT22;18853;45.426;9.206;2023-06-01T15:17:23;32.60;30.40
32394;DHT22;18853;45.426;9.206;2023-06-01T15:19:48;32.70;30.00
32394;DHT22;18853;45.426;9.206;2023-06-01T15:22:14;32.70;30.00
32394;DHT22;18853;45.426;9.206;2023-06-01T15:24:40;32.70;29.90
32394;DHT22;18853;45.426;9.206;2023-06-01T15:27:07;32.80;30.00
32394;DHT22;18853;45.426;9.206;2023-06-01T15:29:33;32.80;30.00
32394;DHT22;18853;45.426;9.206;2023-06-01T15:31:59;32.90;30.60
32394;DHT22;18853;45.426;9.206;2023-06-01T15:34:25;33.00;30.10
32394;DHT22;18853;45.426;9.206;2023-06-01T15:36:50;33.00;30.80
32394;DHT22;18853;45.426;9.206;2023-06-01T15:39:16;33.10;30.80
32394;DHT22;18853;45.426;9.206;2023-06-01T15:41:42;33.20;30.90
32394;DHT22;18853;45.426;9.206;2023-06-01T15:44:08;33.10;29.90
32394;DHT22;18853;45.426;9.206;2023-06-01T15:46:33;33.20;30.10
32394;DHT22;18853;45.426;9.206;2023-06-01T15:48:59;33.30;29.40
32394;DHT22;18853;45.426;9.206;2023-06-01T15:51:26;33.40;29.80
32394;DHT22;18853;45.426;9.206;2023-06-01T15:53:52;33.40;29.60
32394;DHT22;18853;45.426;9.206;2023-06-01T15:56:17;33.30;29.70
32394;DHT22;18853;45.426;9.206;2023-06-01T15:58:43;33.30;29.80
32394;DHT22;18853;45.426;9.206;2023-06-01T16:01:09;33.30;30.00
32394;DHT22;18853;45.426;9.206;2023-06-01T16:03:35;33.20;29.90
32394;DHT22;18853;45.426;9.206;2023-06-01T16:06:00;33.20;30.00